»·PEaware :: WAT202 KSMF-KSNA

WAT202 :: KSMF-KSNA

FLIGHT INFORMATION

Flight Status: Arrived
Operator: Unknown
More flights by this operator :: More flights under this callsign
Pilot: Nick L. (7253)
Aircraft: AIRBUS A319
(A319)
More flights by this aircraft type
Origin: KSMF Sacramento Intl
United States
Destination: KSNA John Wayne-Orange Co
United States
More flights between these airports :: More routes between these airports
Route: +FTHIL3 FRA REBRG OHSEA2
File this flight plan on PilotEdge
Remarks:
Altitude:
(Current/Filed)
39,000ft
Speed:
(Current/Filed)
446kts
Departed: 22-May-20 01:49 PM
Arrived: 22-May-20 02:54 PM
Distance/Time
Traveled:
351nm/1:05
Distance/Time
To Go:
Arrived

Flight Plot

Page will automatically refresh every two minutes.


Map Options




Map Legend


Flown Route
Filed Route
Departure Airport
Arrival Airport
Navaid (VOR, NDB)
Fix

Horizontal Profiles

Position Reports

Time Latitude Longitude Heading Altitude Ground
Speed
22-May-20 13:24 38.695972 -121.595274 110 31ft 0kts
22-May-20 13:25 38.695972 -121.595274 110 31ft 0kts
22-May-20 13:26 38.695972 -121.595274 110 31ft 0kts
22-May-20 13:28 38.695972 -121.595274 110 31ft 0kts
22-May-20 13:29 38.695972 -121.595274 110 31ft 0kts
22-May-20 13:30 38.695972 -121.595274 110 31ft 0kts
22-May-20 13:31 38.695972 -121.595274 110 31ft 0kts
22-May-20 13:32 38.695972 -121.595274 110 31ft 0kts
22-May-20 13:33 38.695972 -121.595274 110 31ft 0kts
22-May-20 13:34 38.695972 -121.595274 110 31ft 0kts
22-May-20 13:35 38.695972 -121.595275 110 31ft 0kts
22-May-20 13:36 38.695996 -121.595321 90 31ft 1kts
22-May-20 13:37 38.696002 -121.595960 112 31ft 0kts
22-May-20 13:38 38.696105 -121.595995 181 31ft 0kts
22-May-20 13:39 38.696105 -121.595995 181 31ft 0kts
22-May-20 13:40 38.696105 -121.595995 181 31ft 0kts
22-May-20 13:41 38.695947 -121.595994 177 31ft 4kts
22-May-20 13:42 38.695401 -121.595978 178 31ft 0kts
22-May-20 13:43 38.694627 -121.597063 270 31ft 17kts
22-May-20 13:43 38.690445 -121.598749 179 31ft 25kts
22-May-20 13:45 38.683834 -121.599539 268 31ft 0kts
22-May-20 13:46 38.683833 -121.599565 268 31ft 1kts
22-May-20 13:46 38.683939 -121.601604 329 31ft 7kts
22-May-20 13:47 38.683980 -121.601606 2 31ft 0kts
22-May-20 13:48 38.687069 -121.601541 0 31ft 82kts
22-May-20 13:49 38.724423 -121.587845 80 2026ft 169kts
22-May-20 13:50 38.696340 -121.529458 126 4393ft 230kts
22-May-20 13:51 38.654068 -121.455997 125 7451ft 273kts
22-May-20 13:52 38.608340 -121.375620 125 10679ft 294kts
22-May-20 13:53 38.555748 -121.283040 126 12364ft 360kts
22-May-20 13:54 38.492126 -121.171465 126 14523ft 401kts
22-May-20 13:55 38.425238 -121.054585 126 17082ft 416kts
22-May-20 13:56 38.355708 -120.933588 126 19338ft 431kts
22-May-20 13:57 38.283460 -120.808356 126 21341ft 444kts
22-May-20 13:58 38.209245 -120.680169 126 23101ft 456kts
22-May-20 13:59 38.134049 -120.550856 126 24638ft 467kts
22-May-20 14:00 38.055448 -120.416244 125 26033ft 474kts
22-May-20 14:01 37.980646 -120.281260 125 27673ft 471kts
22-May-20 14:02 37.884678 -120.171077 149 29185ft 468kts
22-May-20 14:03 37.772559 -120.088544 149 30696ft 466kts
22-May-20 14:04 37.661806 -120.006542 149 31955ft 464kts
22-May-20 14:05 37.550893 -119.924421 149 33124ft 462kts
22-May-20 14:06 37.440231 -119.842714 149 34193ft 461kts
22-May-20 14:07 37.337573 -119.767140 149 35096ft 459kts
22-May-20 14:08 37.225132 -119.684681 156 35575ft 475kts
22-May-20 14:09 37.106324 -119.612372 172 36121ft 471kts
22-May-20 14:10 36.978536 -119.598289 187 36648ft 461kts
22-May-20 14:11 36.849496 -119.601162 186 36964ft 474kts
22-May-20 14:12 36.717830 -119.603371 186 36968ft 479kts
22-May-20 14:13 36.585568 -119.605641 186 36968ft 479kts
22-May-20 14:14 36.452235 -119.607879 186 36963ft 479kts
22-May-20 14:15 36.319610 -119.610082 186 36960ft 479kts
22-May-20 14:16 36.186247 -119.612251 186 36960ft 480kts
22-May-20 14:17 36.053471 -119.614366 186 36959ft 479kts
22-May-20 14:18 35.922247 -119.627514 195 36960ft 472kts
22-May-20 14:19 35.796278 -119.653287 195 36960ft 472kts
22-May-20 14:20 35.664741 -119.664530 178 36961ft 485kts
22-May-20 14:21 35.534526 -119.614596 159 36961ft 497kts
22-May-20 14:22 35.408939 -119.544116 159 36959ft 497kts
22-May-20 14:23 35.282535 -119.474509 159 36960ft 497kts
22-May-20 14:24 35.155781 -119.405059 159 36959ft 497kts
22-May-20 14:25 35.030205 -119.336410 159 36959ft 497kts
22-May-20 14:26 34.907017 -119.269188 157 36252ft 475kts
22-May-20 14:27 34.786394 -119.203759 157 32564ft 487kts
22-May-20 14:28 34.665062 -119.131365 153 29016ft 488kts
22-May-20 14:29 34.551010 -119.058607 153 27539ft 445kts
22-May-20 14:30 34.444530 -118.989559 153 25672ft 425kts
22-May-20 14:31 34.343074 -118.922179 153 23855ft 410kts
22-May-20 14:32 34.244227 -118.857314 156 22097ft 395kts
22-May-20 14:33 34.142591 -118.812285 165 20069ft 383kts
22-May-20 14:34 34.043538 -118.773415 165 18386ft 367kts
22-May-20 14:35 33.947919 -118.736426 165 16714ft 355kts
22-May-20 14:36 33.855319 -118.700743 165 15047ft 344kts
22-May-20 14:37 33.765783 -118.666250 165 13408ft 335kts
22-May-20 14:38 33.677801 -118.634499 167 11782ft 325kts
22-May-20 14:39 33.594459 -118.598069 141 10408ft 314kts
22-May-20 14:40 33.547488 -118.515610 124 9529ft 294kts
22-May-20 14:41 33.519423 -118.426248 92 8239ft 292kts
22-May-20 14:42 33.519636 -118.331503 81 7000ft 287kts
22-May-20 14:43 33.547458 -118.239167 70 6341ft 294kts
22-May-20 14:44 33.581708 -118.151252 57 5031ft 285kts
22-May-20 14:45 33.626229 -118.071747 56 5018ft 288kts
22-May-20 14:46 33.670411 -117.992444 57 5014ft 267kts
22-May-20 14:47 33.715242 -117.933051 25 4687ft 239kts
22-May-20 14:48 33.774129 -117.897058 29 3358ft 229kts
22-May-20 14:49 33.784898 -117.838972 130 2431ft 173kts
22-May-20 14:50 33.745099 -117.824973 202 1482ft 137kts
22-May-20 14:51 33.713841 -117.844801 206 830ft 125kts
22-May-20 14:52 33.683275 -117.864062 207 155ft 124kts
22-May-20 14:53 33.669179 -117.871627 125 65ft 0kts
22-May-20 14:54 33.669376 -117.870678 41 65ft 13kts
22-May-20 14:55 33.674016 -117.866533 28 65ft 23kts
22-May-20 14:56 33.675371 -117.864883 117 65ft 0kts
22-May-20 14:57 33.675371 -117.864883 117 65ft 0kts
22-May-20 14:58 33.675371 -117.864883 117 65ft 0kts

Navigation Log

Ident Type
Flight plan parsing failed, navigation log unavailable